createdAt,value
2017-07-24T00:00:09.495Z,3.70
2017-07-24T00:02:38.594Z,4.23
2017-07-24T00:05:07.828Z,6.43
2017-07-24T00:07:36.903Z,4.07
2017-07-24T00:10:06.005Z,2.47
2017-07-24T00:12:35.060Z,2.53
2017-07-24T00:15:04.145Z,1.70
2017-07-24T00:17:33.209Z,3.53
2017-07-24T00:20:02.279Z,2.20
2017-07-24T00:22:31.348Z,2.80
2017-07-24T00:25:00.432Z,6.27
2017-07-24T00:27:29.475Z,2.90
2017-07-24T00:29:58.541Z,5.57
2017-07-24T00:32:28.351Z,2.10
2017-07-24T00:34:58.194Z,4.00
2017-07-24T00:37:27.455Z,3.40
2017-07-24T00:39:56.634Z,5.27
2017-07-24T00:42:25.764Z,3.90
2017-07-24T00:44:55.581Z,4.23
2017-07-24T00:47:25.412Z,2.47
2017-07-24T00:49:54.547Z,3.80
2017-07-24T00:52:23.580Z,2.60
2017-07-24T00:54:52.639Z,3.13
2017-07-24T00:57:21.692Z,4.33
2017-07-24T00:59:50.769Z,10.43
2017-07-24T01:02:20.968Z,3.67
2017-07-24T01:04:50.019Z,7.20
2017-07-24T01:07:19.067Z,3.30
2017-07-24T01:09:48.880Z,5.90
2017-07-24T01:12:17.989Z,3.83
2017-07-24T01:14:47.004Z,5.20
2017-07-24T01:17:16.096Z,3.13
2017-07-24T01:19:46.108Z,3.63
2017-07-24T01:22:15.180Z,4.37
2017-07-24T01:24:44.212Z,2.23
2017-07-24T01:27:13.313Z,3.33
2017-07-24T01:29:42.393Z,4.10
2017-07-24T01:32:11.439Z,5.77
2017-07-24T01:34:40.517Z,3.03
2017-07-24T01:37:09.961Z,3.33
2017-07-24T01:39:39.794Z,3.10
2017-07-24T01:42:08.857Z,2.70
2017-07-24T01:44:37.915Z,2.90
2017-07-24T01:47:07.014Z,3.67
2017-07-24T01:49:36.113Z,6.90
2017-07-24T01:52:05.184Z,4.67
2017-07-24T01:54:34.233Z,4.60
2017-07-24T01:57:03.346Z,4.83
2017-07-24T01:59:32.511Z,4.47
2017-07-24T02:02:01.580Z,5.93
2017-07-24T02:04:30.635Z,7.03
2017-07-24T02:06:59.671Z,3.10
2017-07-24T02:09:28.727Z,4.13
2017-07-24T02:11:57.797Z,6.17
2017-07-24T02:14:26.863Z,3.00
2017-07-24T02:16:55.903Z,10.13
2017-07-24T02:19:25.765Z,2.90
2017-07-24T02:21:54.805Z,4.53
2017-07-24T02:24:24.624Z,5.10
2017-07-24T02:26:53.667Z,4.10
2017-07-24T02:29:22.734Z,5.63
2017-07-24T02:31:51.808Z,4.37
2017-07-24T02:34:21.612Z,2.83
2017-07-24T02:36:50.706Z,2.73
2017-07-24T02:39:19.734Z,5.20
2017-07-24T02:41:48.801Z,4.70
2017-07-24T02:44:17.839Z,5.47
2017-07-24T02:46:46.887Z,4.47
2017-07-24T02:49:16.715Z,3.33
2017-07-24T02:51:45.781Z,4.20
2017-07-24T02:54:14.854Z,3.90
2017-07-24T02:56:43.902Z,3.87
2017-07-24T02:59:13.739Z,6.47
2017-07-24T03:01:42.796Z,7.13
2017-07-24T03:04:12.761Z,7.43
2017-07-24T03:06:41.775Z,3.90
2017-07-24T03:09:10.862Z,4.63
2017-07-24T03:11:39.917Z,4.67
2017-07-24T03:14:09.153Z,3.60
2017-07-24T03:16:38.241Z,3.97
2017-07-24T03:19:07.540Z,3.60
2017-07-24T03:21:36.651Z,5.50
2017-07-24T03:24:05.738Z,4.17
2017-07-24T03:26:34.829Z,7.60
2017-07-24T03:29:03.907Z,5.17
2017-07-24T03:31:33.165Z,5.00
2017-07-24T03:34:02.209Z,6.30
2017-07-24T03:36:31.269Z,4.40
2017-07-24T03:39:00.345Z,4.17
2017-07-24T03:41:29.411Z,4.07
2017-07-24T03:43:58.453Z,4.07
2017-07-24T03:46:27.520Z,5.70
2017-07-24T03:48:56.570Z,3.80
2017-07-24T03:51:25.640Z,6.37
2017-07-24T03:53:54.692Z,3.73
2017-07-24T03:56:23.788Z,3.93
2017-07-24T03:58:52.884Z,8.03
2017-07-24T04:01:21.943Z,6.33
2017-07-24T04:03:51.005Z,6.30
2017-07-24T04:06:20.072Z,3.23
2017-07-24T04:08:49.145Z,7.20
2017-07-24T04:11:18.185Z,6.83
2017-07-24T04:13:48.008Z,7.80
2017-07-24T04:16:17.840Z,7.00
2017-07-24T04:18:46.908Z,5.00
2017-07-24T04:21:16.733Z,7.50
2017-07-24T04:23:45.775Z,5.60
2017-07-24T04:26:14.837Z,8.13
2017-07-24T04:28:43.894Z,4.33
2017-07-24T04:31:12.958Z,7.10
2017-07-24T04:33:42.013Z,5.63
2017-07-24T04:36:11.088Z,6.63
2017-07-24T04:38:40.956Z,5.57
2017-07-24T04:41:10.016Z,7.00
2017-07-24T04:43:39.086Z,4.60
2017-07-24T04:46:08.137Z,5.57
2017-07-24T04:48:37.196Z,5.90
2017-07-24T04:51:06.991Z,5.13
2017-07-24T04:53:36.808Z,7.07
2017-07-24T04:56:06.668Z,4.70
2017-07-24T04:58:35.700Z,6.77
2017-07-24T05:01:04.779Z,6.10
2017-07-24T05:03:33.829Z,8.07
2017-07-24T05:06:02.879Z,5.50
2017-07-24T05:08:31.964Z,6.93
2017-07-24T05:11:01.010Z,7.20
2017-07-24T05:13:30.083Z,5.40
2017-07-24T05:15:59.987Z,15.70
2017-07-24T05:18:29.035Z,7.43
2017-07-24T05:20:58.083Z,7.00
2017-07-24T05:23:27.904Z,7.87
2017-07-24T05:25:57.731Z,5.93
2017-07-24T05:28:26.796Z,6.73
2017-07-24T05:30:55.855Z,7.27
2017-07-24T05:33:24.905Z,8.30
2017-07-24T05:35:53.981Z,7.63
2017-07-24T05:38:23.045Z,5.90
2017-07-24T05:40:52.105Z,5.47
2017-07-24T05:43:21.179Z,6.00
2017-07-24T05:45:50.243Z,7.23
2017-07-24T05:48:19.324Z,5.97
2017-07-24T05:50:48.356Z,7.30
2017-07-24T05:53:18.226Z,5.20
2017-07-24T05:55:47.284Z,7.40
2017-07-24T05:58:16.329Z,10.13
2017-07-24T06:00:46.145Z,6.10
2017-07-24T06:03:15.849Z,9.00
2017-07-24T06:05:44.923Z,7.67
2017-07-24T06:08:13.994Z,9.43
2017-07-24T06:10:43.055Z,5.80
2017-07-24T06:13:12.132Z,7.37
2017-07-24T06:15:41.172Z,5.97
2017-07-24T06:18:10.550Z,6.43
2017-07-24T06:20:39.593Z,14.37
2017-07-24T06:23:08.644Z,6.87
2017-07-24T06:25:38.452Z,5.60
2017-07-24T06:28:08.303Z,7.77
2017-07-24T06:30:37.395Z,7.93
2017-07-24T06:33:06.459Z,6.43
2017-07-24T06:35:36.280Z,6.70
2017-07-24T06:38:06.100Z,6.53
2017-07-24T06:40:35.199Z,11.37
2017-07-24T06:43:04.272Z,8.63
2017-07-24T06:45:33.320Z,6.50
2017-07-24T06:48:02.451Z,6.23
2017-07-24T06:50:31.522Z,10.30
2017-07-24T06:53:00.622Z,8.37
2017-07-24T06:55:29.679Z,7.10
2017-07-24T06:57:58.768Z,8.93
2017-07-24T07:00:27.816Z,7.47
2017-07-24T07:02:56.865Z,9.60
2017-07-24T07:05:25.953Z,6.07
2017-07-24T07:07:54.991Z,8.17
2017-07-24T07:10:24.085Z,6.93
2017-07-24T07:12:53.105Z,8.60
2017-07-24T07:15:22.142Z,8.10
2017-07-24T07:17:51.203Z,7.33
2017-07-24T07:20:21.332Z,7.93
2017-07-24T07:22:51.160Z,9.37
2017-07-24T07:25:20.687Z,8.07
2017-07-24T07:27:49.770Z,8.33
2017-07-24T07:30:18.840Z,7.67
2017-07-24T07:32:48.656Z,8.00
2017-07-24T07:35:18.712Z,7.37
2017-07-24T07:37:47.774Z,10.50
2017-07-24T07:40:16.903Z,9.33
2017-07-24T07:42:45.919Z,8.70
2017-07-24T07:45:15.762Z,6.90
2017-07-24T07:47:44.865Z,8.90
2017-07-24T07:50:14.691Z,13.50
2017-07-24T07:52:44.813Z,6.07
2017-07-24T07:55:14.657Z,5.30
2017-07-24T07:57:43.901Z,6.23
2017-07-24T08:00:12.980Z,6.40
2017-07-24T08:02:42.016Z,7.73
2017-07-24T08:05:11.117Z,8.77
2017-07-24T08:07:40.882Z,9.50
2017-07-24T08:10:09.956Z,9.43
2017-07-24T08:12:39.032Z,8.13
2017-07-24T08:15:08.218Z,6.20
2017-07-24T08:17:37.295Z,6.73
2017-07-24T08:20:07.121Z,5.57
2017-07-24T08:22:39.856Z,7.83
2017-07-24T08:25:16.613Z,7.80
2017-07-24T08:27:48.852Z,8.53
2017-07-24T08:30:17.966Z,4.30
2017-07-24T08:32:47.044Z,4.30
2017-07-24T08:35:16.095Z,6.00
2017-07-24T08:37:45.886Z,6.70
2017-07-24T08:40:14.944Z,7.27
2017-07-24T08:42:45.472Z,5.87
2017-07-24T08:45:14.546Z,4.40
2017-07-24T08:47:45.040Z,5.77
2017-07-24T08:50:14.917Z,4.10
2017-07-24T08:52:44.016Z,4.90
2017-07-24T08:55:13.050Z,5.50
2017-07-24T08:57:42.108Z,6.73
2017-07-24T09:00:14.637Z,4.00
2017-07-24T09:02:43.693Z,5.77
2017-07-24T09:05:13.506Z,4.20
2017-07-24T09:07:43.265Z,4.70
2017-07-24T09:10:13.093Z,4.87
2017-07-24T09:12:42.164Z,3.97
2017-07-24T09:21:08.894Z,4.37
2017-07-24T09:23:37.980Z,5.30
2017-07-24T09:26:07.110Z,4.50
2017-07-24T09:28:36.973Z,4.30
2017-07-24T09:31:06.078Z,4.57
2017-07-24T09:33:35.149Z,4.30
2017-07-24T09:36:04.193Z,4.10
2017-07-24T09:38:33.256Z,5.40
2017-07-24T09:41:03.287Z,7.43
2017-07-24T09:43:33.499Z,4.33
2017-07-24T09:46:04.165Z,5.33
2017-07-24T09:48:33.480Z,6.10
2017-07-24T09:51:02.572Z,4.33
2017-07-24T09:53:31.652Z,3.60
2017-07-24T09:56:00.736Z,4.17
2017-07-24T09:58:29.784Z,3.57
2017-07-24T10:00:59.171Z,3.90
2017-07-24T10:03:28.256Z,4.20
2017-07-24T10:05:57.349Z,2.70
2017-07-24T10:08:26.543Z,4.43
2017-07-24T10:10:55.580Z,5.10
2017-07-24T10:13:25.419Z,4.47
2017-07-24T10:15:54.476Z,4.63
2017-07-24T10:18:24.287Z,5.00
2017-07-24T10:20:54.113Z,7.27
2017-07-24T10:23:24.300Z,5.00
2017-07-24T10:25:53.343Z,4.80
2017-07-24T10:28:22.406Z,4.87
2017-07-24T10:30:51.458Z,4.20
2017-07-24T10:33:20.610Z,4.03
2017-07-24T10:35:49.727Z,2.40
2017-07-24T10:38:19.055Z,7.53
2017-07-24T10:40:48.119Z,4.07
2017-07-24T10:43:17.243Z,4.37
2017-07-24T10:45:46.296Z,4.07
2017-07-24T10:48:16.167Z,3.20
2017-07-24T10:50:45.224Z,5.00
2017-07-24T10:53:14.322Z,4.20
2017-07-24T10:55:43.367Z,3.67
2017-07-24T10:58:12.477Z,3.67
2017-07-24T11:00:41.527Z,4.90
2017-07-24T11:03:10.677Z,3.40
2017-07-24T11:05:39.732Z,5.53
2017-07-24T11:08:08.821Z,5.57
2017-07-24T11:10:37.903Z,4.20
2017-07-24T11:13:07.224Z,4.93
2017-07-24T11:15:36.272Z,5.13
2017-07-24T11:18:05.367Z,6.03
2017-07-24T11:20:34.454Z,5.27
2017-07-24T11:23:04.255Z,5.03
2017-07-24T11:25:34.085Z,5.10
2017-07-24T11:28:04.164Z,6.73
2017-07-24T11:30:33.241Z,6.57
2017-07-24T11:33:02.316Z,8.67
2017-07-24T11:35:31.468Z,12.80
2017-07-24T11:38:00.563Z,11.77
2017-07-24T11:40:30.442Z,14.67
2017-07-24T11:42:59.561Z,14.23
2017-07-24T11:45:28.600Z,16.37
2017-07-24T11:47:57.694Z,14.67
2017-07-24T11:50:26.769Z,14.07
2017-07-24T11:52:55.840Z,13.63
2017-07-24T11:55:25.529Z,14.10
2017-07-24T11:57:54.624Z,9.20
2017-07-24T12:00:23.680Z,6.80
2017-07-24T12:02:53.499Z,5.60
2017-07-24T12:05:22.551Z,4.50
2017-07-24T12:07:51.645Z,3.60
2017-07-24T12:10:20.933Z,3.43
2017-07-24T12:12:49.999Z,2.70
2017-07-24T12:15:19.068Z,3.93
2017-07-24T12:17:48.425Z,3.20
2017-07-24T12:20:17.491Z,3.40
2017-07-24T12:22:47.079Z,3.60
2017-07-24T12:25:16.885Z,5.00
2017-07-24T12:27:45.958Z,5.83
2017-07-24T12:30:15.353Z,7.23
2017-07-24T12:32:44.440Z,6.13
2017-07-24T12:35:13.497Z,6.63
2017-07-24T12:37:46.687Z,5.50
2017-07-24T12:43:47.893Z,5.00
2017-07-24T12:46:16.967Z,5.00
2017-07-24T12:48:46.955Z,5.27
2017-07-24T13:00:32.432Z,5.07
2017-07-24T13:03:01.491Z,4.80
2017-07-24T13:05:30.563Z,4.10
2017-07-24T13:08:00.866Z,4.13
2017-07-24T13:10:29.946Z,4.30
2017-07-24T13:12:59.107Z,5.10
2017-07-24T13:15:28.317Z,4.50
2017-07-24T13:17:57.472Z,4.90
2017-07-24T13:20:27.356Z,4.90
2017-07-24T13:22:56.428Z,5.80
2017-07-24T13:25:25.532Z,3.93
2017-07-24T13:27:54.585Z,3.47
2017-07-24T13:30:24.472Z,4.00
2017-07-24T13:32:54.404Z,4.30
2017-07-24T13:35:24.268Z,5.07
2017-07-24T13:37:53.321Z,4.67
2017-07-24T13:40:23.920Z,4.33
2017-07-24T13:45:31.133Z,5.00
2017-07-24T13:48:00.168Z,5.50
2017-07-24T13:50:29.256Z,3.97
2017-07-24T13:52:58.306Z,8.20
2017-07-24T13:55:27.366Z,5.13
2017-07-24T13:57:56.425Z,4.10
2017-07-24T14:00:26.239Z,6.23
2017-07-24T14:02:56.149Z,3.93
2017-07-24T14:05:25.193Z,4.60
2017-07-24T14:07:54.286Z,4.40
2017-07-24T14:10:23.395Z,4.23
2017-07-24T14:12:52.444Z,4.23
2017-07-24T14:15:21.509Z,6.13
2017-07-24T14:17:50.555Z,3.90
2017-07-24T14:20:19.610Z,3.90
2017-07-24T14:22:49.448Z,3.93
2017-07-24T14:25:18.522Z,5.07
2017-07-24T14:28:08.176Z,7.47
2017-07-24T14:30:37.225Z,5.40
2017-07-24T14:33:06.311Z,6.63
2017-07-24T14:35:35.336Z,8.53
2017-07-24T14:38:04.428Z,7.70
2017-07-24T14:40:33.482Z,10.20
2017-07-24T14:43:02.523Z,8.47
2017-07-24T14:45:31.598Z,10.00
2017-07-24T14:48:00.651Z,12.77
2017-07-24T14:50:29.730Z,10.97
2017-07-24T14:52:58.777Z,9.30
2017-07-24T14:55:27.836Z,9.40
2017-07-24T14:57:56.895Z,9.03
2017-07-24T15:00:25.957Z,9.57
2017-07-24T15:02:55.156Z,9.83
2017-07-24T15:05:24.224Z,9.77
2017-07-24T15:07:53.255Z,11.50
2017-07-24T15:10:22.363Z,10.33
2017-07-24T15:12:51.442Z,10.80
2017-07-24T15:15:20.507Z,12.60
2017-07-24T15:17:49.568Z,11.60
2017-07-24T15:20:18.652Z,12.63
2017-07-24T15:22:47.698Z,10.90
2017-07-24T15:25:16.763Z,13.83
2017-07-24T15:27:45.839Z,13.63
2017-07-24T15:30:14.878Z,12.17
2017-07-24T15:32:44.047Z,11.93
2017-07-24T15:35:13.403Z,9.53
2017-07-24T15:37:42.440Z,7.43
2017-07-24T15:40:11.585Z,7.90
2017-07-24T15:42:40.603Z,5.33
2017-07-24T15:45:09.665Z,4.63
2017-07-24T15:47:38.699Z,4.23
2017-07-24T15:50:07.759Z,5.37
2017-07-24T15:52:36.833Z,4.40
2017-07-24T15:55:05.924Z,4.10
2017-07-24T15:57:34.955Z,4.57
2017-07-24T16:00:04.100Z,4.20
2017-07-24T16:02:33.178Z,4.83
2017-07-24T16:05:02.228Z,4.23
2017-07-24T16:07:31.313Z,6.33
2017-07-24T16:10:00.368Z,5.60
2017-07-24T16:12:29.420Z,5.63
2017-07-24T16:14:58.471Z,5.80
2017-07-24T16:17:27.516Z,5.30
2017-07-24T16:19:56.560Z,5.70
2017-07-24T16:22:25.625Z,5.77
2017-07-24T16:24:54.673Z,6.83
2017-07-24T16:27:23.724Z,5.97
2017-07-24T16:29:52.766Z,6.20
2017-07-24T16:32:21.827Z,6.70
2017-07-24T16:34:50.893Z,6.53
2017-07-24T16:37:19.984Z,7.53
2017-07-24T16:39:49.040Z,7.50
2017-07-24T16:42:18.127Z,6.10
2017-07-24T16:44:47.213Z,5.20
2017-07-24T16:47:16.285Z,5.30
2017-07-24T16:49:45.339Z,8.07
2017-07-24T16:52:14.725Z,6.20
2017-07-24T16:54:43.756Z,6.03
2017-07-24T16:57:12.799Z,6.47
2017-07-24T16:59:41.863Z,7.83
2017-07-24T17:02:10.935Z,8.30
2017-07-24T17:04:39.956Z,9.43
2017-07-24T17:07:09.095Z,11.30
2017-07-24T17:09:38.163Z,10.47
2017-07-24T17:12:07.263Z,10.80
2017-07-24T17:14:36.324Z,10.53
2017-07-24T17:17:05.513Z,10.67
2017-07-24T17:19:34.584Z,10.20
2017-07-24T17:22:03.689Z,9.80
2017-07-24T17:24:32.747Z,10.23
2017-07-24T17:27:01.808Z,10.13
2017-07-24T17:29:30.859Z,14.37
2017-07-24T17:31:59.928Z,11.53
2017-07-24T17:34:29.052Z,11.00
2017-07-24T17:36:58.277Z,9.53
2017-07-24T17:39:27.319Z,10.40
2017-07-24T17:41:56.378Z,9.70
2017-07-24T17:44:25.425Z,9.20
2017-07-24T17:46:54.493Z,11.40
2017-07-24T17:49:23.578Z,10.40
2017-07-24T17:51:52.635Z,10.03
2017-07-24T17:54:21.699Z,10.43
2017-07-24T17:56:50.863Z,11.47
2017-07-24T17:59:19.922Z,9.60
2017-07-24T18:01:49.005Z,11.30
2017-07-24T18:04:18.074Z,12.60
2017-07-24T18:06:47.125Z,11.47
2017-07-24T18:09:16.232Z,10.70
2017-07-24T18:11:45.273Z,9.90
2017-07-24T18:14:14.360Z,12.77
2017-07-24T18:16:43.405Z,8.53
2017-07-24T18:19:12.485Z,10.93
2017-07-24T18:21:41.538Z,9.30
2017-07-24T18:24:10.632Z,8.40
2017-07-24T18:26:39.650Z,9.20
2017-07-24T18:29:08.822Z,8.70
2017-07-24T18:31:37.912Z,7.53
2017-07-24T18:34:06.997Z,8.10
2017-07-24T18:36:36.044Z,8.87
2017-07-24T18:39:05.087Z,8.33
2017-07-24T18:41:34.135Z,8.37
2017-07-24T18:44:03.215Z,9.77
2017-07-24T18:46:32.273Z,8.00
2017-07-24T18:49:01.300Z,9.00
2017-07-24T18:51:30.372Z,7.83
2017-07-24T18:53:59.431Z,7.63
2017-07-24T18:56:28.488Z,7.10
2017-07-24T18:58:57.561Z,7.50
2017-07-24T19:01:26.604Z,8.50
2017-07-24T19:03:55.694Z,12.70
2017-07-24T19:06:24.752Z,7.00
2017-07-24T19:08:53.816Z,7.07
2017-07-24T19:11:22.897Z,7.33
2017-07-24T19:13:52.061Z,7.37
2017-07-24T19:16:21.091Z,6.20
2017-07-24T19:18:50.295Z,8.67
2017-07-24T19:21:19.356Z,8.03
2017-07-24T19:23:48.468Z,6.60
2017-07-24T19:26:17.573Z,7.40
2017-07-24T19:28:46.602Z,7.07
2017-07-24T19:31:15.637Z,7.57
2017-07-24T19:33:44.712Z,7.03
2017-07-24T19:36:13.834Z,7.57
2017-07-24T19:38:42.875Z,6.70
2017-07-24T19:41:11.927Z,12.60
2017-07-24T19:43:41.010Z,7.63
2017-07-24T19:46:10.044Z,7.63
2017-07-24T19:48:39.137Z,7.27
2017-07-24T19:51:08.194Z,8.87
2017-07-24T19:53:37.346Z,11.20
2017-07-24T19:56:06.450Z,8.60
2017-07-24T19:58:35.468Z,8.57
2017-07-24T20:01:04.522Z,9.67
2017-07-24T20:03:33.584Z,11.53
2017-07-24T20:06:02.702Z,9.73
2017-07-24T20:08:31.756Z,9.40
2017-07-24T20:11:00.960Z,10.87
2017-07-24T20:13:30.003Z,9.63
2017-07-24T20:15:59.114Z,10.30
2017-07-24T20:18:28.192Z,9.40
2017-07-24T20:20:57.268Z,9.13
2017-07-24T20:23:26.559Z,10.40
2017-07-24T20:25:55.740Z,11.40
2017-07-24T20:28:24.795Z,11.03
2017-07-24T20:30:53.890Z,12.17
2017-07-24T20:33:22.939Z,12.07
2017-07-24T20:35:52.048Z,15.03
2017-07-24T20:38:21.176Z,11.80
2017-07-24T20:40:50.224Z,12.40
2017-07-24T20:43:19.339Z,11.70
2017-07-24T20:45:48.400Z,13.00
2017-07-24T20:48:17.496Z,12.60
2017-07-24T20:50:46.543Z,12.70
2017-07-24T20:53:15.631Z,11.67
2017-07-24T20:55:44.996Z,12.20
2017-07-24T20:58:14.193Z,14.13
2017-07-24T21:00:43.233Z,13.23
2017-07-24T21:03:12.426Z,14.50
2017-07-24T21:05:41.511Z,15.20
2017-07-24T21:08:10.560Z,14.03
2017-07-24T21:10:39.635Z,15.40
2017-07-24T21:13:08.685Z,18.60
2017-07-24T21:15:37.746Z,15.23
2017-07-24T21:18:06.803Z,13.83
2017-07-24T21:20:35.879Z,14.70
2017-07-24T21:23:04.960Z,14.20
2017-07-24T21:25:34.032Z,15.07
2017-07-24T21:28:03.109Z,14.37
2017-07-24T21:30:32.205Z,15.50
2017-07-24T21:33:01.273Z,14.53
2017-07-24T21:35:30.352Z,16.83
2017-07-24T21:37:59.456Z,17.47
2017-07-24T21:40:28.521Z,17.33
2017-07-24T21:42:57.612Z,18.70
2017-07-24T21:45:26.704Z,17.67
2017-07-24T21:47:55.787Z,17.60
2017-07-24T21:50:24.879Z,17.33
2017-07-24T21:52:53.928Z,18.63
2017-07-24T21:55:23.034Z,20.77
2017-07-24T21:57:52.082Z,22.30
2017-07-24T22:00:21.204Z,21.13
2017-07-24T22:02:50.279Z,20.23
2017-07-24T22:05:19.483Z,19.50
2017-07-24T22:07:48.535Z,18.43
2017-07-24T22:10:17.634Z,20.80
2017-07-24T22:12:46.684Z,19.00
2017-07-24T22:15:15.942Z,18.00
2017-07-24T22:17:45.008Z,16.40
2017-07-24T22:20:14.136Z,19.00
2017-07-24T22:22:43.175Z,15.07
2017-07-24T22:25:12.471Z,18.20
2017-07-24T22:27:41.544Z,14.07
2017-07-24T22:30:10.642Z,15.40
2017-07-24T22:32:39.740Z,18.63
2017-07-24T22:35:08.811Z,19.13
2017-07-24T22:37:37.919Z,20.10
2017-07-24T22:40:06.970Z,18.77
2017-07-24T22:42:36.074Z,19.20
2017-07-24T22:45:05.136Z,18.50
2017-07-24T22:47:34.195Z,20.93
2017-07-24T22:50:03.304Z,17.90
2017-07-24T22:52:32.346Z,18.87
2017-07-24T22:55:01.399Z,21.33
2017-07-24T22:57:30.492Z,19.70
2017-07-24T22:59:59.546Z,18.33
2017-07-24T23:02:28.632Z,18.70
2017-07-24T23:04:57.708Z,18.80
2017-07-24T23:07:26.751Z,20.53
2017-07-24T23:09:55.864Z,22.73
2017-07-24T23:12:24.912Z,20.90
2017-07-24T23:14:53.965Z,22.37
2017-07-24T23:17:23.002Z,23.00
2017-07-24T23:19:52.127Z,22.70
2017-07-24T23:22:21.187Z,24.23
2017-07-24T23:24:50.251Z,23.37
2017-07-24T23:27:19.328Z,22.63
2017-07-24T23:29:48.395Z,31.33
2017-07-24T23:32:20.381Z,23.90
2017-07-24T23:34:49.428Z,23.90
2017-07-24T23:37:18.520Z,23.80
2017-07-24T23:39:47.555Z,24.60
2017-07-24T23:42:16.627Z,29.03
2017-07-24T23:44:45.715Z,24.33
2017-07-24T23:47:14.803Z,23.40
2017-07-24T23:49:43.833Z,25.77
2017-07-24T23:52:12.909Z,25.00
2017-07-24T23:54:41.981Z,25.40
2017-07-24T23:57:11.061Z,28.07
2017-07-24T23:59:40.123Z,25.30
